Vershire, VT (05079)

8:30 AM EDT on May 24, 2015 (GMT -0400)
The Barn in Mill Village | | Change Station
CLOSE
Current Station
Personal Weather Station
Location: Vershire, VT
Elevation: 1017 ft
Nearby Weather Stations
Active Advisory: Special Statement

Elev 1017 ft 43.96 °N, 72.30 °W | Updated 7 minutes ago

Clear
Clear
63.5 °F
Feels Like 63.5 °F
N
7.8
Wind Variable Wind from ESE

Today
High -- | Low -- °F
--% Chance of Precip.
Yesterday
High -- | Low -- °F
Precip. -- in
5:15 AM 8:17 PM
Waxing Crescent, 39% visible
Pressure 30.23 in
Visibility 10.0 miles
Clouds Clear
Dew Point 37 °F
Humidity 38%
Rainfall 0.00 in
Snow Depth Not available.
UV 2 out of 12
Pollen 9.90 out of 12
Air Quality Not available.
Flu Activity Local Activity
METAR KMPV 241151Z AUTO 23006KT 10SM CLR 16/00 A3022 RMK AO2 SLP237 T01560000 10156 20111 51012 $

More Conditions Fewer Conditions

Pressure 30.23 in
Visibility 10.0 miles
Clouds Clear
Dew Point 37 °F
Humidity 38%
Rainfall 0.00 in
Snow Depth Not available.
UV 2 out of 12
Pollen 9.90 out of 12
Air Quality Not available.
Flu Activity Local Activity
METAR KMPV 241151Z AUTO 23006KT 10SM CLR 16/00 A3022 RMK AO2 SLP237 T01560000 10156 20111 51012 $

More Conditions Fewer Conditions

10-Day Weather Forecast

Almanac

Astronomy

May. 24, 2015 Rise Set
Actual Time
Civil Twilight
Nautical Twilight
Astronomical Twilight
Moon
Length of Visible Light
Length of Day
Tomorrow will be .
, % of the Moon is Illuminated

Today's Extremes

State Highs State Lows

Community

WunderPhotos

Upload Photos

1,823,722 photos uploaded!

WunderBlogs® & News

Nearby

Air Quality

  Air Quality AQ Index Pollutant
Not available.

Snow Depth

Station Depth Elevation

Earthquake Activity

City Distance Mag. Time & Date
Minimum magnitude displayed is 2.5.

Coastal Water Temperatures

Place Temperature

Stations

Nearby Weather Stations

Station Location Temp. Windchill Dew Point Humidity Wind Precip. Elev Updated Type
                   
Special Statement
Statement as of 6:57 AM EDT on May 24, 2015

... Special Weather Statement...

Per coordination with the Vermont department of forests, Parks and
recreation, fine dead fuels such as leaves and grass remain very dry
across most of the region, and with lower than average
precipitation over the past few weeks conditions remain favorable
for these fuels to burn quickly should any fires start. Low
afternoon relative humidity (25 to 35%) along with gusty west to
southwesterly winds from 20 to 30 mph will exacerbate these
conditions today. Thus any fires that do start today will have the
potential to spread quickly... burn intensely and become difficult
to contain. Persons planning outdoor burning of brush or other
material today should do so with caution.


Jmg